createdAt,value
2022-08-25T00:00:44.774Z,101766.06
2022-08-25T00:03:47.601Z,101771.59
2022-08-25T00:06:51.065Z,101768.09
2022-08-25T00:09:53.092Z,101762.16
2022-08-25T00:12:55.129Z,101756.34
2022-08-25T00:15:57.946Z,101754.00
2022-08-25T00:19:04.276Z,101755.13
2022-08-25T00:22:07.839Z,101750.03
2022-08-25T00:25:09.888Z,101749.34
2022-08-25T00:28:12.033Z,101754.94
2022-08-25T00:31:20.156Z,101758.91
2022-08-25T00:34:27.074Z,101758.22
2022-08-25T00:37:29.273Z,101753.19
2022-08-25T00:40:31.359Z,101756.03
2022-08-25T00:43:45.696Z,101751.78
2022-08-25T00:46:53.697Z,101746.84
2022-08-25T00:49:59.587Z,101749.50
2022-08-25T00:53:04.440Z,101747.09
2022-08-25T00:56:06.976Z,101737.50
2022-08-25T00:59:09.145Z,101731.50
2022-08-25T01:02:13.778Z,101738.75
2022-08-25T01:05:16.455Z,101731.09
2022-08-25T01:08:21.378Z,101732.13
2022-08-25T01:11:23.428Z,101728.66
2022-08-25T01:14:27.545Z,101728.81
2022-08-25T01:17:44.948Z,101725.19
2022-08-25T01:20:52.087Z,101717.16
2022-08-25T01:23:56.419Z,101721.56
2022-08-25T01:26:58.524Z,101723.31
2022-08-25T01:30:00.543Z,101724.09
2022-08-25T01:33:08.732Z,101729.44
2022-08-25T01:36:10.740Z,101733.16
2022-08-25T01:39:14.218Z,101727.16
2022-08-25T01:42:32.737Z,101720.44
2022-08-25T01:45:35.459Z,101725.22
2022-08-25T01:48:37.504Z,101717.50
2022-08-25T01:51:48.142Z,101714.03
2022-08-25T01:54:50.284Z,101717.84
2022-08-25T01:57:52.777Z,101714.03
2022-08-25T02:00:57.749Z,101718.78
2022-08-25T02:04:00.156Z,101705.00
2022-08-25T02:07:04.319Z,101707.03
2022-08-25T02:10:06.939Z,101708.16
2022-08-25T02:13:09.045Z,101706.66
2022-08-25T02:16:19.439Z,101712.00
2022-08-25T02:19:24.580Z,101701.31
2022-08-25T02:22:26.615Z,101696.09
2022-08-25T02:25:28.665Z,101698.13
2022-08-25T02:28:30.689Z,101701.94
2022-08-25T02:31:33.549Z,101696.06
2022-08-25T02:34:35.575Z,101688.34
2022-08-25T02:37:37.686Z,101693.56
2022-08-25T02:40:39.749Z,101693.75
2022-08-25T02:43:43.244Z,101695.56
2022-08-25T02:46:45.280Z,101688.47
2022-08-25T02:49:47.293Z,101682.09
2022-08-25T02:52:49.357Z,101672.19
2022-08-25T02:55:51.388Z,101670.44
2022-08-25T02:58:53.932Z,101661.38
2022-08-25T03:01:56.113Z,101667.78
2022-08-25T03:04:58.219Z,101661.81
2022-08-25T03:08:00.327Z,101657.31
2022-08-25T03:11:03.739Z,101663.63
2022-08-25T03:14:07.784Z,101660.22
2022-08-25T03:17:09.909Z,101657.00
2022-08-25T03:20:12.778Z,101658.16
2022-08-25T03:23:14.795Z,101653.16
2022-08-25T03:26:17.065Z,101647.22
2022-08-25T03:29:30.532Z,101650.19
2022-08-25T03:32:32.540Z,101645.28
2022-08-25T03:35:34.653Z,101641.97
2022-08-25T03:38:36.674Z,101642.06
2022-08-25T03:41:39.397Z,101634.75
2022-08-25T03:44:41.446Z,101635.13
2022-08-25T03:47:46.810Z,101626.47
2022-08-25T03:50:51.668Z,101630.78
2022-08-25T03:53:55.527Z,101621.19
2022-08-25T03:56:57.638Z,101613.88
2022-08-25T03:59:59.926Z,101618.66
2022-08-25T04:03:01.968Z,101610.59
2022-08-25T04:06:05.604Z,101609.88
2022-08-25T04:09:08.083Z,101616.28
2022-08-25T04:12:10.224Z,101613.03
2022-08-25T04:15:12.220Z,101609.28
2022-08-25T04:18:14.392Z,101610.56
2022-08-25T04:21:17.574Z,101599.88
2022-08-25T04:24:19.572Z,101599.22
2022-08-25T04:27:21.589Z,101600.16
2022-08-25T04:30:23.711Z,101598.50
2022-08-25T04:33:25.753Z,101589.06
2022-08-25T04:36:27.785Z,101592.50
2022-08-25T04:39:30.603Z,101595.25
2022-08-25T04:42:33.350Z,101592.50
2022-08-25T04:45:39.897Z,101606.81
2022-08-25T04:48:43.003Z,101600.78
2022-08-25T04:51:45.563Z,101597.19
2022-08-25T04:54:47.644Z,101592.78
2022-08-25T04:57:49.748Z,101600.50
2022-08-25T05:00:52.028Z,101599.28
2022-08-25T05:04:02.218Z,101599.28
2022-08-25T05:07:04.857Z,101600.09
2022-08-25T05:10:07.434Z,101609.50
2022-08-25T05:13:10.213Z,101604.88
2022-08-25T05:16:12.757Z,101602.63
2022-08-25T05:19:14.975Z,101607.56
2022-08-25T05:22:17.031Z,101602.72
2022-08-25T05:25:19.168Z,101616.88
2022-08-25T05:28:21.221Z,101618.22
2022-08-25T05:31:25.018Z,101615.25
2022-08-25T05:34:27.161Z,101622.81
2022-08-25T05:37:29.204Z,101617.03
2022-08-25T05:40:32.285Z,101618.31
2022-08-25T05:43:34.426Z,101615.16
2022-08-25T05:46:36.666Z,101618.00
2022-08-25T05:49:38.766Z,101617.31
2022-08-25T05:52:40.904Z,101616.63
2022-08-25T05:55:45.136Z,101625.94
2022-08-25T05:58:47.812Z,101631.47
2022-08-25T06:01:49.875Z,101635.97
2022-08-25T06:04:51.888Z,101630.84
2022-08-25T06:07:53.956Z,101618.41
2022-08-25T06:10:55.965Z,101628.78
2022-08-25T06:13:59.659Z,101625.84
2022-08-25T06:17:02.063Z,101615.16
2022-08-25T06:20:04.605Z,101622.78
2022-08-25T06:23:09.096Z,101618.25
2022-08-25T06:26:19.524Z,101611.47
2022-08-25T06:29:23.751Z,101610.56
2022-08-25T06:32:25.837Z,101607.66
2022-08-25T06:35:27.857Z,101598.06
2022-08-25T06:38:29.980Z,101608.41
2022-08-25T06:41:37.061Z,101609.81
2022-08-25T06:44:39.201Z,101619.31
2022-08-25T06:47:41.354Z,101613.34
2022-08-25T06:50:43.744Z,101626.41
2022-08-25T06:53:47.756Z,101620.25
2022-08-25T06:56:50.016Z,101616.91
2022-08-25T06:59:53.505Z,101617.81
2022-08-25T07:02:56.571Z,101617.13
2022-08-25T07:05:58.588Z,101618.41
2022-08-25T07:09:01.035Z,101614.13
2022-08-25T07:12:03.326Z,101614.38
2022-08-25T07:15:21.438Z,101609.03
2022-08-25T07:18:23.981Z,101605.25
2022-08-25T07:21:32.670Z,101606.88
2022-08-25T07:24:35.612Z,101608.06
2022-08-25T07:27:38.949Z,101613.06
2022-08-25T07:30:43.723Z,101604.84
2022-08-25T07:33:45.824Z,101602.56
2022-08-25T07:36:47.848Z,101602.91
2022-08-25T07:39:50.153Z,101603.13
2022-08-25T07:42:54.765Z,101593.63
2022-08-25T07:45:56.892Z,101599.59
2022-08-25T07:48:58.926Z,101599.88
2022-08-25T07:52:04.159Z,101608.19
2022-08-25T07:55:08.499Z,101604.75
2022-08-25T07:58:13.249Z,101615.09
2022-08-25T08:01:22.139Z,101613.66
2022-08-25T08:04:24.416Z,101601.19
2022-08-25T08:07:42.162Z,101611.78
2022-08-25T08:11:03.320Z,101617.78
2022-08-25T08:14:07.675Z,101609.44
2022-08-25T08:17:10.400Z,101614.63
2022-08-25T08:20:12.484Z,101610.09
2022-08-25T08:23:16.237Z,101606.94
2022-08-25T08:26:19.270Z,101604.41
2022-08-25T08:29:21.386Z,101601.00
2022-08-25T08:32:35.476Z,101602.56
2022-08-25T08:35:46.437Z,101607.38
2022-08-25T08:38:49.277Z,101598.47
2022-08-25T08:42:11.255Z,101605.59
2022-08-25T08:45:35.470Z,101604.66
2022-08-25T08:49:00.206Z,101606.16
2022-08-25T08:52:04.088Z,101603.69
2022-08-25T08:55:23.222Z,101610.16
2022-08-25T08:58:49.887Z,101613.09
2022-08-25T09:01:55.516Z,101614.16
2022-08-25T09:05:01.989Z,101610.53
2022-08-25T09:08:09.433Z,101605.84
2022-08-25T09:11:46.165Z,101603.91
2022-08-25T09:15:14.929Z,101601.47
2022-08-25T09:18:16.923Z,101600.06
2022-08-25T09:21:24.962Z,101597.59
2022-08-25T09:24:51.201Z,101600.94
2022-08-25T09:28:07.818Z,101599.72
2022-08-25T09:31:27.506Z,101602.56
2022-08-25T09:34:33.736Z,101599.00
2022-08-25T09:37:35.732Z,101601.78
2022-08-25T09:40:40.796Z,101603.47
2022-08-25T09:43:54.233Z,101594.13
2022-08-25T09:47:02.102Z,101592.47
2022-08-25T09:50:05.511Z,101595.41
2022-08-25T09:53:17.049Z,101591.78
2022-08-25T09:56:22.739Z,101588.38
2022-08-25T09:59:34.963Z,101582.38
2022-08-25T10:02:37.587Z,101588.19
2022-08-25T10:06:13.232Z,101582.91
2022-08-25T10:09:33.626Z,101578.88
2022-08-25T10:12:43.784Z,101572.81
2022-08-25T10:15:46.410Z,101569.69
2022-08-25T10:19:18.429Z,101565.19
2022-08-25T10:22:22.195Z,101556.84
2022-08-25T10:25:30.916Z,101560.75
2022-08-25T10:28:37.182Z,101558.44
2022-08-25T10:31:52.549Z,101551.66
2022-08-25T10:34:57.844Z,101548.75
2022-08-25T10:38:23.971Z,101543.13
2022-08-25T10:41:57.361Z,101537.44
2022-08-25T10:45:22.222Z,101538.44
2022-08-25T10:48:24.257Z,101533.50
2022-08-25T10:51:38.771Z,101528.59
2022-08-25T10:54:49.740Z,101534.88
2022-08-25T10:58:07.692Z,101530.38
2022-08-25T11:01:44.493Z,101526.66
2022-08-25T11:05:24.640Z,101528.56
2022-08-25T11:08:44.991Z,101518.16
2022-08-25T11:12:05.593Z,101518.16
2022-08-25T11:15:12.545Z,101522.78
2022-08-25T11:18:15.283Z,101522.53
2022-08-25T11:21:27.196Z,101517.41
2022-08-25T11:24:38.093Z,101518.66
2022-08-25T11:27:55.221Z,101520.34
2022-08-25T11:31:01.763Z,101509.28
2022-08-25T11:34:03.994Z,101506.81
2022-08-25T11:37:19.789Z,101504.16
2022-08-25T11:40:30.743Z,101497.69
2022-08-25T11:43:51.632Z,101491.63
2022-08-25T11:46:59.522Z,101481.38
2022-08-25T11:50:05.880Z,101491.16
2022-08-25T11:53:30.230Z,101489.50
2022-08-25T11:56:40.093Z,101488.22
2022-08-25T11:59:51.437Z,101479.50
2022-08-25T12:02:54.102Z,101481.34
2022-08-25T12:06:21.800Z,101479.19
2022-08-25T12:09:23.819Z,101473.47
2022-08-25T12:12:41.764Z,101470.06
2022-08-25T12:15:44.061Z,101480.44
2022-08-25T12:18:46.469Z,101463.84
2022-08-25T12:21:48.992Z,101472.97
2022-08-25T12:25:04.571Z,101465.03
2022-08-25T12:28:40.404Z,101467.13
2022-08-25T12:32:04.298Z,101458.75
2022-08-25T12:35:32.066Z,101462.16
2022-08-25T12:38:47.283Z,101454.88
2022-08-25T12:41:58.189Z,101460.72
2022-08-25T12:45:12.212Z,101452.56
2022-08-25T12:48:26.061Z,101453.94
2022-08-25T12:51:33.822Z,101449.38
2022-08-25T12:54:35.785Z,101455.53
2022-08-25T12:57:42.954Z,101449.84
2022-08-25T13:01:24.554Z,101455.25
2022-08-25T13:04:52.062Z,101450.16
2022-08-25T13:08:33.859Z,101456.31
2022-08-25T13:11:51.087Z,101447.38
2022-08-25T13:14:56.282Z,101445.50
2022-08-25T13:18:19.080Z,101448.72
2022-08-25T13:21:24.263Z,101443.31
2022-08-25T13:24:40.139Z,101440.28
2022-08-25T13:27:47.658Z,101439.81
2022-08-25T13:31:04.775Z,101428.84
2022-08-25T13:34:19.530Z,101423.66
2022-08-25T13:37:24.218Z,101424.97
2022-08-25T13:40:29.613Z,101418.00
2022-08-25T13:43:31.750Z,101426.81
2022-08-25T13:46:35.455Z,101424.31
2022-08-25T13:49:39.417Z,101415.31
2022-08-25T13:52:41.674Z,101413.06
2022-08-25T13:55:50.663Z,101416.97
2022-08-25T13:58:57.019Z,101419.91
2022-08-25T14:01:59.217Z,101410.97
2022-08-25T14:05:01.405Z,101404.44
2022-08-25T14:08:16.073Z,101405.41
2022-08-25T14:11:43.684Z,101411.31
2022-08-25T14:14:57.903Z,101401.66
2022-08-25T14:18:28.578Z,101402.84
2022-08-25T14:21:33.711Z,101399.63
2022-08-25T14:24:40.904Z,101406.09
2022-08-25T14:28:03.731Z,101392.16
2022-08-25T14:31:10.208Z,101404.84
2022-08-25T14:34:20.139Z,101401.72
2022-08-25T14:37:25.505Z,101398.41
2022-08-25T14:40:32.079Z,101398.19
2022-08-25T14:43:36.147Z,101397.69
2022-08-25T14:47:05.736Z,101405.22
2022-08-25T14:50:10.453Z,101397.81
2022-08-25T14:53:13.181Z,101390.97
2022-08-25T14:56:15.532Z,101380.34
2022-08-25T14:59:17.552Z,101386.09
2022-08-25T15:02:22.273Z,101385.56
2022-08-25T15:05:31.751Z,101376.94
2022-08-25T15:08:33.804Z,101380.63
2022-08-25T15:11:38.715Z,101386.31
2022-08-25T15:14:43.728Z,101391.16
2022-08-25T15:17:47.597Z,101397.31
2022-08-25T15:20:51.553Z,101387.19
2022-08-25T15:23:56.554Z,101389.19
2022-08-25T15:27:00.967Z,101395.75
2022-08-25T15:30:04.770Z,101390.22
2022-08-25T15:33:06.785Z,101389.50
2022-08-25T15:36:11.527Z,101386.19
2022-08-25T15:39:19.004Z,101390.47
2022-08-25T15:42:21.668Z,101391.91
2022-08-25T15:45:23.955Z,101398.94
2022-08-25T15:48:26.825Z,101387.28
2022-08-25T15:51:29.238Z,101395.09
2022-08-25T15:54:31.452Z,101406.09
2022-08-25T15:57:34.206Z,101400.31
2022-08-25T16:00:40.931Z,101403.00
2022-08-25T16:03:44.183Z,101412.47
2022-08-25T16:06:46.352Z,101408.63
2022-08-25T16:09:50.021Z,101411.00
2022-08-25T16:12:53.276Z,101413.19
2022-08-25T16:15:55.676Z,101402.09
2022-08-25T16:18:58.206Z,101405.69
2022-08-25T16:22:00.637Z,101408.84
2022-08-25T16:25:02.983Z,101410.00
2022-08-25T16:28:12.501Z,101416.44
2022-08-25T16:31:16.438Z,101409.19
2022-08-25T16:34:18.506Z,101414.84
2022-08-25T16:37:20.521Z,101398.78
2022-08-25T16:40:25.232Z,101394.28
2022-08-25T16:43:28.502Z,101398.38
2022-08-25T16:46:31.993Z,101389.81
2022-08-25T16:49:34.082Z,101393.97
2022-08-25T16:52:36.426Z,101401.63
2022-08-25T16:55:38.943Z,101401.38
2022-08-25T16:58:41.545Z,101404.38
2022-08-25T17:01:47.766Z,101402.66
2022-08-25T17:04:51.807Z,101402.41
2022-08-25T17:07:53.945Z,101402.03
2022-08-25T17:11:16.851Z,101400.66
2022-08-25T17:14:19.283Z,101410.78
2022-08-25T17:17:21.319Z,101403.81
2022-08-25T17:20:29.115Z,101397.81
2022-08-25T17:23:31.247Z,101404.00
2022-08-25T17:26:33.381Z,101411.69
2022-08-25T17:29:35.695Z,101417.84
2022-08-25T17:32:38.373Z,101422.31
2022-08-25T17:35:42.441Z,101416.75
2022-08-25T17:38:44.909Z,101420.63
2022-08-25T17:41:47.766Z,101426.66
2022-08-25T17:44:49.815Z,101425.06
2022-08-25T17:47:51.817Z,101427.56
2022-08-25T17:50:55.241Z,101434.88
2022-08-25T17:53:57.344Z,101428.00
2022-08-25T17:56:59.365Z,101428.22
2022-08-25T18:00:01.437Z,101429.94
2022-08-25T18:03:10.551Z,101438.53
2022-08-25T18:06:15.014Z,101438.28
2022-08-25T18:09:18.127Z,101435.59
2022-08-25T18:12:20.169Z,101446.69
2022-08-25T18:15:23.217Z,101447.28
2022-08-25T18:18:25.260Z,101457.38
2022-08-25T18:21:30.640Z,101457.63
2022-08-25T18:24:33.805Z,101459.66
2022-08-25T18:27:37.536Z,101466.84
2022-08-25T18:30:39.793Z,101471.88
2022-08-25T18:33:41.943Z,101469.22
2022-08-25T18:36:43.969Z,101479.31
2022-08-25T18:39:47.165Z,101472.50
2022-08-25T18:42:53.945Z,101478.94
2022-08-25T18:45:57.112Z,101480.97
2022-08-25T18:48:59.658Z,101481.63
2022-08-25T18:52:01.681Z,101475.03
2022-08-25T18:55:04.392Z,101485.97
2022-08-25T18:58:07.659Z,101491.69
2022-08-25T19:01:15.807Z,101497.25
2022-08-25T19:04:17.987Z,101499.53
2022-08-25T19:07:20.068Z,101503.34
2022-08-25T19:10:24.008Z,101508.72
2022-08-25T19:13:26.931Z,101509.75
2022-08-25T19:16:40.290Z,101516.16
2022-08-25T19:19:42.680Z,101522.84
2022-08-25T19:22:46.005Z,101525.25
2022-08-25T19:25:48.240Z,101523.63
2022-08-25T19:28:50.970Z,101530.72
2022-08-25T19:31:53.065Z,101533.66
2022-08-25T19:34:55.790Z,101532.53
2022-08-25T19:37:59.993Z,101536.25
2022-08-25T19:41:02.716Z,101545.81
2022-08-25T19:44:12.982Z,101537.75
2022-08-25T19:47:16.124Z,101540.44
2022-08-25T19:50:23.722Z,101556.69
2022-08-25T19:53:25.757Z,101555.91
2022-08-25T19:56:27.840Z,101558.59
2022-08-25T19:59:40.803Z,101559.09
2022-08-25T20:02:45.104Z,101561.72
2022-08-25T20:05:48.561Z,101569.75
2022-08-25T20:08:58.955Z,101570.44
2022-08-25T20:12:03.505Z,101568.97
2022-08-25T20:15:09.342Z,101576.06
2022-08-25T20:18:11.354Z,101575.97
2022-08-25T20:21:13.373Z,101584.91
2022-08-25T20:24:15.511Z,101580.22
2022-08-25T20:27:18.545Z,101591.72
2022-08-25T20:30:23.565Z,101578.31
2022-08-25T20:33:25.619Z,101576.75
2022-08-25T20:36:27.658Z,101586.81
2022-08-25T20:39:29.793Z,101584.22
2022-08-25T20:42:32.022Z,101585.06
2022-08-25T20:45:34.105Z,101583.25
2022-08-25T20:48:36.137Z,101582.72
2022-08-25T20:51:38.153Z,101597.97
2022-08-25T20:54:40.356Z,101600.91
2022-08-25T20:57:42.766Z,101597.56
2022-08-25T21:00:45.745Z,101598.78
2022-08-25T21:03:48.555Z,101600.69
2022-08-25T21:06:51.291Z,101600.50
2022-08-25T21:09:53.322Z,101592.63
2022-08-25T21:12:55.325Z,101600.84
2022-08-25T21:15:57.319Z,101619.00
2022-08-25T21:18:59.357Z,101607.16
2022-08-25T21:22:01.420Z,101612.41
2022-08-25T21:25:04.178Z,101611.31
2022-08-25T21:28:06.296Z,101616.06
2022-08-25T21:31:09.560Z,101623.94
2022-08-25T21:34:12.253Z,101624.88
2022-08-25T21:37:14.272Z,101617.00
2022-08-25T21:40:16.515Z,101618.84
2022-08-25T21:43:18.710Z,101625.03
2022-08-25T21:46:23.597Z,101624.97
2022-08-25T21:49:25.642Z,101624.47
2022-08-25T21:52:27.809Z,101630.59
2022-08-25T21:55:37.282Z,101640.44
2022-08-25T21:58:49.020Z,101632.13
2022-08-25T22:01:55.616Z,101632.66
2022-08-25T22:04:58.160Z,101638.97
2022-08-25T22:08:01.132Z,101636.28
2022-08-25T22:11:06.347Z,101629.28
2022-08-25T22:14:09.597Z,101639.91
2022-08-25T22:17:16.663Z,101627.66
2022-08-25T22:20:19.281Z,101638.28
2022-08-25T22:23:21.373Z,101653.31
2022-08-25T22:26:24.908Z,101645.78
2022-08-25T22:29:30.529Z,101649.41
2022-08-25T22:32:32.649Z,101647.53
2022-08-25T22:35:35.402Z,101653.72
2022-08-25T22:38:37.389Z,101651.16
2022-08-25T22:41:41.781Z,101651.31
2022-08-25T22:44:44.923Z,101654.94
2022-08-25T22:47:47.202Z,101652.19
2022-08-25T22:50:49.222Z,101658.56
2022-08-25T22:53:52.113Z,101658.78
2022-08-25T22:56:54.686Z,101666.97
2022-08-25T22:59:56.708Z,101669.75
2022-08-25T23:02:58.753Z,101670.63
2022-08-25T23:06:00.768Z,101664.38
2022-08-25T23:09:06.375Z,101663.44
2022-08-25T23:12:08.538Z,101672.41
2022-08-25T23:15:11.930Z,101662.59
2022-08-25T23:18:14.537Z,101663.53
2022-08-25T23:21:16.554Z,101671.31
2022-08-25T23:24:27.490Z,101666.13
2022-08-25T23:27:32.217Z,101668.88
2022-08-25T23:30:34.242Z,101666.13
2022-08-25T23:33:36.264Z,101675.97
2022-08-25T23:36:38.322Z,101672.41
2022-08-25T23:39:40.341Z,101674.25
2022-08-25T23:42:42.400Z,101672.25
2022-08-25T23:45:44.470Z,101670.53
2022-08-25T23:48:47.349Z,101658.09
2022-08-25T23:51:51.815Z,101656.59
2022-08-25T23:54:54.924Z,101662.13
2022-08-25T23:57:56.916Z,101663.94
